createdAt,value
2022-11-23T00:00:41.185Z,4.80
2022-11-23T00:03:08.002Z,4.80
2022-11-23T00:05:34.846Z,4.80
2022-11-23T00:08:02.206Z,4.80
2022-11-23T00:10:29.075Z,4.80
2022-11-23T00:12:55.910Z,4.80
2022-11-23T00:15:22.747Z,4.80
2022-11-23T00:17:49.537Z,4.80
2022-11-23T00:20:16.735Z,4.80
2022-11-23T00:22:43.645Z,4.80
2022-11-23T00:25:10.519Z,4.80
2022-11-23T00:27:37.352Z,4.80
2022-11-23T00:30:05.298Z,4.80
2022-11-23T00:32:32.117Z,4.80
2022-11-23T00:34:58.898Z,4.80
2022-11-23T00:37:25.743Z,4.80
2022-11-23T00:39:52.522Z,4.80
2022-11-23T00:42:19.347Z,4.80
2022-11-23T00:44:46.169Z,4.80
2022-11-23T00:47:13.017Z,4.80
2022-11-23T00:49:39.837Z,4.70
2022-11-23T00:52:06.669Z,4.80
2022-11-23T00:54:33.805Z,4.70
2022-11-23T00:57:00.671Z,4.70
2022-11-23T00:59:29.882Z,4.70
2022-11-23T01:01:57.085Z,4.70
2022-11-23T01:04:23.899Z,4.70
2022-11-23T01:06:50.718Z,4.70
2022-11-23T01:09:19.880Z,4.70
2022-11-23T01:11:46.705Z,4.60
2022-11-23T01:14:13.597Z,4.70
2022-11-23T01:16:41.924Z,4.60
2022-11-23T01:19:12.389Z,4.60
2022-11-23T01:21:39.595Z,4.60
2022-11-23T01:24:14.875Z,4.60
2022-11-23T01:26:42.121Z,4.70
2022-11-23T01:29:09.173Z,4.70
2022-11-23T01:31:36.832Z,4.70
2022-11-23T01:34:05.511Z,4.60
2022-11-23T01:36:34.446Z,4.70
2022-11-23T01:39:03.031Z,4.60
2022-11-23T01:41:37.870Z,4.60
2022-11-23T01:44:28.862Z,4.70
2022-11-23T01:46:58.923Z,4.70
2022-11-23T01:49:27.934Z,4.70
2022-11-23T01:51:59.715Z,4.70
2022-11-23T01:54:48.482Z,4.70
2022-11-23T01:57:22.693Z,4.70
2022-11-23T01:59:50.675Z,4.70
2022-11-23T02:02:17.947Z,4.60
2022-11-23T02:04:48.697Z,4.70
2022-11-23T02:07:17.715Z,4.60
2022-11-23T02:09:46.686Z,4.60
2022-11-23T02:12:14.939Z,4.60
2022-11-23T02:14:42.313Z,4.60
2022-11-23T02:17:09.428Z,4.60
2022-11-23T02:19:39.206Z,4.60
2022-11-23T02:22:14.430Z,4.60
2022-11-23T02:24:49.934Z,4.60
2022-11-23T02:27:17.288Z,4.60
2022-11-23T02:29:44.477Z,4.60
2022-11-23T02:32:11.346Z,4.70
2022-11-23T02:34:38.159Z,4.60
2022-11-23T02:37:04.983Z,4.60
2022-11-23T02:39:42.030Z,4.70
2022-11-23T02:42:08.881Z,4.60
2022-11-23T02:44:54.360Z,4.60
2022-11-23T02:47:21.174Z,4.70
2022-11-23T02:49:49.474Z,4.70
2022-11-23T02:52:17.752Z,4.70
2022-11-23T02:54:44.874Z,4.70
2022-11-23T02:57:11.790Z,4.70
2022-11-23T02:59:38.582Z,4.60
2022-11-23T03:02:06.024Z,4.70
2022-11-23T03:04:32.891Z,4.70
2022-11-23T03:06:59.815Z,4.70
2022-11-23T03:09:26.653Z,4.70
2022-11-23T03:11:54.674Z,4.60
2022-11-23T03:14:22.031Z,4.70
2022-11-23T03:16:48.986Z,4.60
2022-11-23T03:19:16.026Z,4.60
2022-11-23T03:21:42.895Z,4.60
2022-11-23T03:24:09.687Z,4.60
2022-11-23T03:26:36.604Z,4.60
2022-11-23T03:29:03.456Z,4.60
2022-11-23T03:31:30.306Z,4.60
2022-11-23T03:33:57.098Z,4.60
2022-11-23T03:36:23.910Z,4.60
2022-11-23T03:38:50.736Z,4.60
2022-11-23T03:41:17.590Z,4.70
2022-11-23T03:43:44.420Z,4.60
2022-11-23T03:46:11.225Z,4.60
2022-11-23T03:48:38.155Z,4.60
2022-11-23T03:51:05.175Z,4.70
2022-11-23T03:53:32.052Z,4.60
2022-11-23T03:55:58.912Z,4.60
2022-11-23T03:58:26.056Z,4.60
2022-11-23T04:00:52.856Z,4.60
2022-11-23T04:03:19.706Z,4.70
2022-11-23T04:05:46.582Z,4.60
2022-11-23T04:08:13.417Z,4.60
2022-11-23T04:10:40.245Z,4.60
2022-11-23T04:13:07.076Z,4.60
2022-11-23T04:15:33.963Z,4.50
2022-11-23T04:18:01.026Z,4.50
2022-11-23T04:20:27.891Z,4.50
2022-11-23T04:22:54.878Z,4.50
2022-11-23T04:25:21.729Z,4.50
2022-11-23T04:27:48.819Z,4.50
2022-11-23T04:30:15.727Z,4.50
2022-11-23T04:32:45.852Z,4.50
2022-11-23T04:35:12.964Z,4.50
2022-11-23T04:37:40.349Z,4.50
2022-11-23T04:40:07.744Z,4.50
2022-11-23T04:42:34.547Z,4.50
2022-11-23T04:45:01.442Z,4.40
2022-11-23T04:47:28.388Z,4.40
2022-11-23T04:49:55.212Z,4.50
2022-11-23T04:52:22.047Z,4.50
2022-11-23T04:54:48.838Z,4.50
2022-11-23T04:57:15.728Z,4.40
2022-11-23T04:59:42.595Z,4.40
2022-11-23T05:02:10.281Z,4.40
2022-11-23T05:04:37.172Z,4.50
2022-11-23T05:07:04.116Z,4.40
2022-11-23T05:09:32.436Z,4.40
2022-11-23T05:11:59.552Z,4.40
2022-11-23T05:14:26.349Z,4.40
2022-11-23T05:16:53.170Z,4.40
2022-11-23T05:19:19.968Z,4.40
2022-11-23T05:21:46.801Z,4.40
2022-11-23T05:24:13.600Z,4.40
2022-11-23T05:26:40.398Z,4.40
2022-11-23T05:29:07.210Z,4.40
2022-11-23T05:31:34.128Z,4.40
2022-11-23T05:34:00.952Z,4.40
2022-11-23T05:36:27.760Z,4.50
2022-11-23T05:38:54.555Z,4.50
2022-11-23T05:41:21.377Z,4.40
2022-11-23T05:43:48.158Z,4.50
2022-11-23T05:46:14.990Z,4.50
2022-11-23T05:48:41.780Z,4.50
2022-11-23T05:51:08.668Z,4.50
2022-11-23T05:53:35.486Z,4.50
2022-11-23T05:56:03.073Z,4.50
2022-11-23T05:58:30.089Z,4.50
2022-11-23T06:01:00.550Z,4.60
2022-11-23T06:03:28.451Z,4.60
2022-11-23T06:05:55.420Z,4.50
2022-11-23T06:08:22.259Z,4.60
2022-11-23T06:10:49.250Z,4.60
2022-11-23T06:13:16.144Z,4.60
2022-11-23T06:15:43.089Z,4.50
2022-11-23T06:18:09.936Z,4.60
2022-11-23T06:20:37.244Z,4.60
2022-11-23T06:23:04.105Z,4.60
2022-11-23T06:25:31.112Z,4.60
2022-11-23T06:27:59.974Z,4.60
2022-11-23T06:30:29.129Z,4.60
2022-11-23T06:32:56.624Z,4.60
2022-11-23T06:35:23.929Z,4.60
2022-11-23T06:37:51.778Z,4.60
2022-11-23T06:40:18.743Z,4.60
2022-11-23T06:42:46.045Z,4.40
2022-11-23T06:45:13.337Z,4.60
2022-11-23T06:47:40.244Z,4.60
2022-11-23T06:50:07.676Z,4.70
2022-11-23T06:52:34.472Z,4.70
2022-11-23T06:55:01.281Z,4.70
2022-11-23T06:57:28.139Z,4.70
2022-11-23T06:59:54.946Z,4.70
2022-11-23T07:02:21.783Z,4.70
2022-11-23T07:04:48.557Z,4.80
2022-11-23T07:07:15.436Z,4.80
2022-11-23T07:09:42.274Z,4.80
2022-11-23T07:12:09.079Z,4.80
2022-11-23T07:14:35.877Z,4.80
2022-11-23T07:17:02.721Z,4.80
2022-11-23T07:19:29.807Z,4.80
2022-11-23T07:21:56.795Z,4.80
2022-11-23T07:24:23.619Z,4.90
2022-11-23T07:26:50.707Z,4.90
2022-11-23T07:29:17.586Z,4.90
2022-11-23T07:31:44.396Z,4.90
2022-11-23T07:34:11.357Z,4.90
2022-11-23T07:36:38.546Z,5.00
2022-11-23T07:39:05.493Z,4.90
2022-11-23T07:41:32.453Z,4.90
2022-11-23T07:43:59.257Z,4.90
2022-11-23T07:46:26.337Z,5.00
2022-11-23T07:48:54.625Z,5.00
2022-11-23T07:51:21.463Z,5.10
2022-11-23T07:53:48.316Z,5.10
2022-11-23T07:56:15.174Z,5.10
2022-11-23T07:58:42.020Z,5.20
2022-11-23T08:01:08.938Z,5.20
2022-11-23T08:03:35.855Z,5.30
2022-11-23T08:06:02.909Z,5.30
2022-11-23T08:08:29.717Z,5.30
2022-11-23T08:10:56.560Z,5.30
2022-11-23T08:13:23.594Z,5.40
2022-11-23T08:15:55.675Z,5.40
2022-11-23T08:18:24.374Z,5.40
2022-11-23T08:20:51.336Z,5.40
2022-11-23T08:23:18.532Z,5.40
2022-11-23T08:25:45.866Z,5.40
2022-11-23T08:28:12.797Z,5.50
2022-11-23T08:30:39.614Z,5.50
2022-11-23T08:33:08.053Z,5.60
2022-11-23T08:35:37.571Z,5.60
2022-11-23T08:38:05.305Z,5.60
2022-11-23T08:40:32.764Z,5.60
2022-11-23T08:42:59.634Z,5.70
2022-11-23T08:45:27.214Z,5.70
2022-11-23T08:47:55.802Z,5.70
2022-11-23T08:50:22.792Z,5.70
2022-11-23T08:52:58.488Z,5.70
2022-11-23T08:55:29.407Z,5.70
2022-11-23T08:57:59.811Z,5.70
2022-11-23T09:00:27.711Z,5.80
2022-11-23T09:02:54.748Z,5.80
2022-11-23T09:05:21.863Z,5.80
2022-11-23T09:07:48.859Z,5.80
2022-11-23T09:10:18.660Z,5.80
2022-11-23T09:12:46.816Z,5.80
2022-11-23T09:15:13.791Z,5.80
2022-11-23T09:17:40.578Z,5.90
2022-11-23T09:20:08.175Z,5.90
2022-11-23T09:22:34.966Z,6.00
2022-11-23T09:25:02.649Z,6.10
2022-11-23T09:27:29.874Z,6.10
2022-11-23T09:29:56.713Z,6.10
2022-11-23T09:32:23.520Z,6.10
2022-11-23T09:34:50.400Z,6.20
2022-11-23T09:37:17.295Z,6.20
2022-11-23T09:39:44.352Z,6.30
2022-11-23T09:42:28.084Z,6.30
2022-11-23T09:45:30.613Z,6.30
2022-11-23T09:48:15.174Z,6.40
2022-11-23T09:50:48.438Z,6.40
2022-11-23T09:53:34.304Z,6.40
2022-11-23T09:56:02.019Z,6.40
2022-11-23T09:58:39.864Z,6.40
2022-11-23T10:01:13.284Z,6.40
2022-11-23T10:03:48.212Z,6.50
2022-11-23T10:06:22.077Z,6.40
2022-11-23T10:09:14.819Z,6.40
2022-11-23T10:12:10.580Z,6.30
2022-11-23T10:14:56.343Z,6.30
2022-11-23T10:17:35.048Z,6.30
2022-11-23T10:20:29.563Z,6.30
2022-11-23T10:23:06.523Z,6.40
2022-11-23T10:25:42.854Z,6.40
2022-11-23T10:28:18.454Z,6.30
2022-11-23T10:30:56.645Z,6.40
2022-11-23T10:33:37.884Z,6.40
2022-11-23T10:36:04.891Z,6.40
2022-11-23T10:38:32.779Z,6.50
2022-11-23T10:41:09.932Z,6.40
2022-11-23T10:43:58.454Z,6.40
2022-11-23T10:46:31.124Z,6.40
2022-11-23T10:49:09.307Z,6.50
2022-11-23T10:51:36.496Z,6.60
2022-11-23T10:54:06.442Z,6.50
2022-11-23T10:56:34.490Z,6.50
2022-11-23T10:59:01.535Z,6.40
2022-11-23T11:01:30.351Z,6.50
2022-11-23T11:04:04.222Z,6.50
2022-11-23T11:06:34.701Z,6.50
2022-11-23T11:09:17.075Z,6.50
2022-11-23T11:11:48.161Z,6.60
2022-11-23T11:14:17.919Z,6.60
2022-11-23T11:16:49.190Z,6.70
2022-11-23T11:19:30.632Z,6.70
2022-11-23T11:21:59.268Z,6.80
2022-11-23T11:24:33.184Z,6.80
2022-11-23T11:27:05.077Z,6.80
2022-11-23T11:29:45.117Z,6.80
2022-11-23T11:32:26.714Z,6.90
2022-11-23T11:35:04.180Z,6.90
2022-11-23T11:37:46.197Z,6.90
2022-11-23T11:40:51.368Z,6.90
2022-11-23T11:43:31.289Z,7.00
2022-11-23T11:46:29.713Z,7.10
2022-11-23T11:49:14.974Z,7.20
2022-11-23T11:51:46.577Z,7.10
2022-11-23T11:54:31.998Z,7.00
2022-11-23T11:57:17.876Z,7.00
2022-11-23T11:59:47.907Z,7.10
2022-11-23T12:02:43.127Z,7.10
2022-11-23T12:05:32.782Z,7.10
2022-11-23T12:08:18.120Z,7.20
2022-11-23T12:10:55.487Z,7.10
2022-11-23T12:13:32.976Z,7.10
2022-11-23T12:16:38.713Z,7.20
2022-11-23T12:19:10.011Z,7.20
2022-11-23T12:21:56.139Z,7.20
2022-11-23T12:24:28.764Z,7.20
2022-11-23T12:27:18.999Z,7.10
2022-11-23T12:29:51.751Z,7.20
2022-11-23T12:32:43.023Z,7.20
2022-11-23T12:35:30.068Z,7.20
2022-11-23T12:38:15.256Z,7.10
2022-11-23T12:41:12.404Z,7.10
2022-11-23T12:43:44.999Z,7.10
2022-11-23T12:46:22.273Z,7.10
2022-11-23T12:49:11.207Z,7.10
2022-11-23T12:51:56.612Z,7.10
2022-11-23T12:54:46.917Z,7.20
2022-11-23T12:57:29.752Z,7.10
2022-11-23T13:00:12.588Z,7.20
2022-11-23T13:02:51.098Z,7.20
2022-11-23T13:05:47.634Z,7.20
2022-11-23T13:08:50.027Z,7.20
2022-11-23T13:11:36.726Z,7.10
2022-11-23T13:14:42.005Z,7.10
2022-11-23T13:17:35.742Z,7.20
2022-11-23T13:20:11.494Z,7.20
2022-11-23T13:22:44.168Z,7.20
2022-11-23T13:25:14.177Z,7.20
2022-11-23T13:27:50.056Z,7.20
2022-11-23T13:30:45.625Z,7.20
2022-11-23T13:33:21.091Z,7.20
2022-11-23T13:36:05.154Z,7.30
2022-11-23T13:38:40.338Z,7.30
2022-11-23T13:41:33.630Z,7.30
2022-11-23T13:44:12.841Z,7.30
2022-11-23T13:46:39.775Z,7.30
2022-11-23T13:49:45.512Z,7.30
2022-11-23T13:52:21.591Z,7.30
2022-11-23T13:55:03.942Z,7.30
2022-11-23T13:57:36.263Z,7.30
2022-11-23T14:00:40.655Z,7.30
2022-11-23T14:03:44.946Z,7.40
2022-11-23T14:06:34.104Z,7.30
2022-11-23T14:09:25.415Z,7.40
2022-11-23T14:12:23.537Z,7.30
2022-11-23T14:15:14.377Z,7.30
2022-11-23T14:18:13.646Z,7.30
2022-11-23T14:20:46.459Z,7.30
2022-11-23T14:24:03.010Z,7.40
2022-11-23T14:26:54.359Z,7.40
2022-11-23T14:29:51.763Z,7.40
2022-11-23T14:32:39.789Z,7.30
2022-11-23T14:35:59.950Z,7.30
2022-11-23T14:38:53.345Z,7.30
2022-11-23T14:41:23.759Z,7.40
2022-11-23T14:43:51.232Z,7.30
2022-11-23T14:46:20.057Z,7.30
2022-11-23T14:48:48.195Z,7.30
2022-11-23T14:51:26.538Z,7.30
2022-11-23T14:53:56.922Z,7.30
2022-11-23T14:56:36.872Z,7.30
2022-11-23T14:59:08.893Z,7.20
2022-11-23T15:01:37.219Z,7.20
2022-11-23T15:04:21.799Z,7.20
2022-11-23T15:06:52.261Z,7.20
2022-11-23T15:09:33.889Z,7.20
2022-11-23T15:12:21.561Z,7.20
2022-11-23T15:14:51.421Z,7.20
2022-11-23T15:17:20.986Z,7.20
2022-11-23T15:19:58.999Z,7.20
2022-11-23T15:22:27.421Z,7.20
2022-11-23T15:24:55.288Z,7.20
2022-11-23T15:27:28.966Z,7.10
2022-11-23T15:30:00.532Z,7.10
2022-11-23T15:32:34.673Z,7.30
2022-11-23T15:35:07.379Z,7.10
2022-11-23T15:37:48.600Z,7.10
2022-11-23T15:40:17.669Z,7.10
2022-11-23T15:42:46.849Z,7.10
2022-11-23T15:45:41.698Z,7.10
2022-11-23T15:48:26.774Z,7.10
2022-11-23T15:51:03.082Z,7.10
2022-11-23T15:53:50.215Z,7.10
2022-11-23T15:56:25.721Z,7.00
2022-11-23T15:58:54.421Z,7.10
2022-11-23T16:01:22.287Z,7.00
2022-11-23T16:03:52.831Z,7.00
2022-11-23T16:06:24.869Z,7.00
2022-11-23T16:08:52.035Z,7.00
2022-11-23T16:11:29.425Z,7.00
2022-11-23T16:14:19.062Z,7.00
2022-11-23T16:17:20.123Z,7.00
2022-11-23T16:19:56.067Z,7.00
2022-11-23T16:22:38.668Z,7.00
2022-11-23T16:25:20.957Z,7.00
2022-11-23T16:27:56.846Z,7.00
2022-11-23T16:30:36.499Z,7.00
2022-11-23T16:33:04.264Z,6.90
2022-11-23T16:35:31.251Z,6.90
2022-11-23T16:37:58.247Z,6.90
2022-11-23T16:40:25.520Z,6.90
2022-11-23T16:42:53.276Z,6.90
2022-11-23T16:45:20.660Z,6.90
2022-11-23T16:48:02.430Z,6.90
2022-11-23T16:50:32.668Z,6.90
2022-11-23T16:53:12.916Z,6.90
2022-11-23T16:55:43.567Z,7.00
2022-11-23T16:58:16.327Z,6.90
2022-11-23T17:00:44.318Z,6.90
2022-11-23T17:03:14.651Z,7.00
2022-11-23T17:05:41.961Z,6.90
2022-11-23T17:08:08.938Z,6.90
2022-11-23T17:10:38.811Z,6.90
2022-11-23T17:13:12.735Z,6.90
2022-11-23T17:15:41.360Z,7.00
2022-11-23T17:18:14.572Z,6.90
2022-11-23T17:20:41.943Z,6.90
2022-11-23T17:23:09.131Z,6.90
2022-11-23T17:25:37.436Z,6.90
2022-11-23T17:28:06.492Z,6.90
2022-11-23T17:30:33.816Z,6.90
2022-11-23T17:33:01.092Z,6.90
2022-11-23T17:35:30.788Z,6.90
2022-11-23T17:38:02.177Z,6.90
2022-11-23T17:40:37.619Z,6.90
2022-11-23T17:43:04.916Z,6.90
2022-11-23T17:45:32.239Z,6.90
2022-11-23T17:48:03.077Z,6.80
2022-11-23T17:50:31.139Z,6.90
2022-11-23T17:52:58.366Z,6.90
2022-11-23T17:55:25.516Z,6.80
2022-11-23T17:57:52.940Z,6.90
2022-11-23T18:00:23.125Z,6.80
2022-11-23T18:02:50.397Z,6.80
2022-11-23T18:05:21.489Z,6.80
2022-11-23T18:07:52.758Z,6.80
2022-11-23T18:10:20.298Z,6.80
2022-11-23T18:12:51.273Z,6.80
2022-11-23T18:15:18.878Z,6.80
2022-11-23T18:17:46.218Z,6.80
2022-11-23T18:20:13.468Z,6.80
2022-11-23T18:22:41.053Z,6.80
2022-11-23T18:25:08.693Z,6.80
2022-11-23T18:27:36.228Z,6.80
2022-11-23T18:30:03.994Z,6.80
2022-11-23T18:32:32.565Z,6.80
2022-11-23T18:35:00.162Z,6.80
2022-11-23T18:37:27.368Z,6.70
2022-11-23T18:39:55.569Z,6.80
2022-11-23T18:42:23.755Z,6.80
2022-11-23T18:44:50.972Z,6.70
2022-11-23T18:47:18.262Z,6.70
2022-11-23T18:49:45.137Z,6.70
2022-11-23T18:52:14.314Z,6.70
2022-11-23T18:54:42.416Z,6.70
2022-11-23T18:57:10.457Z,6.80
2022-11-23T19:02:24.845Z,6.70
2022-11-23T19:04:52.131Z,6.80
2022-11-23T19:07:25.154Z,6.80
2022-11-23T19:09:54.287Z,6.70
2022-11-23T19:12:22.671Z,6.70
2022-11-23T19:14:50.313Z,6.70
2022-11-23T19:17:18.284Z,6.70
2022-11-23T19:19:45.558Z,6.70
2022-11-23T19:22:12.919Z,6.70
2022-11-23T19:24:40.685Z,6.70
2022-11-23T19:27:07.556Z,6.70
2022-11-23T19:29:35.556Z,6.70
2022-11-23T19:32:03.501Z,6.70
2022-11-23T19:34:30.883Z,6.70
2022-11-23T19:36:58.810Z,6.80
2022-11-23T19:39:26.089Z,6.80
2022-11-23T19:41:54.437Z,6.70
2022-11-23T19:44:21.770Z,6.70
2022-11-23T19:46:49.181Z,6.70
2022-11-23T19:49:16.618Z,6.80
2022-11-23T19:51:44.012Z,6.80
2022-11-23T19:54:11.422Z,6.70
2022-11-23T19:56:39.894Z,6.70
2022-11-23T19:59:11.384Z,6.70
2022-11-23T20:01:38.834Z,6.70
2022-11-23T20:04:09.152Z,6.70
2022-11-23T20:06:38.793Z,6.70
2022-11-23T20:09:10.510Z,6.70
2022-11-23T20:11:40.039Z,6.70
2022-11-23T20:14:09.444Z,6.70
2022-11-23T20:16:36.544Z,6.70
2022-11-23T20:19:07.880Z,6.70
2022-11-23T20:21:36.662Z,6.80
2022-11-23T20:24:07.277Z,6.80
2022-11-23T20:26:36.867Z,6.70
2022-11-23T20:29:05.602Z,6.70
2022-11-23T20:31:33.382Z,6.70
2022-11-23T20:34:02.605Z,6.70
2022-11-23T20:36:37.906Z,6.70
2022-11-23T20:39:07.740Z,6.70
2022-11-23T20:41:36.797Z,6.70
2022-11-23T20:44:05.012Z,6.70
2022-11-23T20:49:20.012Z,6.70
2022-11-23T20:51:47.145Z,6.70
2022-11-23T20:54:14.351Z,6.70
2022-11-23T20:56:42.634Z,6.70
2022-11-23T20:59:12.305Z,6.70
2022-11-23T21:01:41.164Z,6.70
2022-11-23T21:04:09.363Z,6.70
2022-11-23T21:06:39.470Z,6.70
2022-11-23T21:09:08.185Z,6.70
2022-11-23T21:11:53.868Z,6.70
2022-11-23T21:14:23.273Z,6.70
2022-11-23T21:16:53.467Z,6.70
2022-11-23T21:19:23.318Z,6.70
2022-11-23T21:21:50.580Z,6.70
2022-11-23T21:24:17.576Z,6.70
2022-11-23T21:26:44.583Z,6.70
2022-11-23T21:29:12.054Z,6.70
2022-11-23T21:31:43.519Z,6.70
2022-11-23T21:34:19.015Z,6.70
2022-11-23T21:36:46.246Z,6.70
2022-11-23T21:39:14.085Z,6.70
2022-11-23T21:41:41.213Z,6.70
2022-11-23T21:44:08.927Z,6.70
2022-11-23T21:46:37.759Z,6.70
2022-11-23T21:49:06.711Z,6.70
2022-11-23T21:51:35.254Z,6.70
2022-11-23T21:54:05.340Z,6.70
2022-11-23T21:56:34.158Z,6.70
2022-11-23T21:59:00.972Z,6.70
2022-11-23T22:01:30.608Z,6.60
2022-11-23T22:04:03.209Z,6.60
2022-11-23T22:06:30.461Z,6.60
2022-11-23T22:08:59.900Z,6.60
2022-11-23T22:11:29.287Z,6.60
2022-11-23T22:14:17.165Z,6.60
2022-11-23T22:16:46.458Z,6.70
2022-11-23T22:19:15.403Z,6.70
2022-11-23T22:21:44.393Z,6.70
2022-11-23T22:24:13.661Z,6.70
2022-11-23T22:26:41.315Z,6.70
2022-11-23T22:29:08.764Z,6.70
2022-11-23T22:31:36.209Z,6.70
2022-11-23T22:34:05.772Z,6.70
2022-11-23T22:36:33.061Z,6.70
2022-11-23T22:39:02.806Z,6.70
2022-11-23T22:41:33.475Z,6.70
2022-11-23T22:44:00.350Z,6.70
2022-11-23T22:46:27.342Z,6.70
2022-11-23T22:48:59.325Z,6.70
2022-11-23T22:51:28.767Z,6.70
2022-11-23T22:53:57.280Z,6.70
2022-11-23T22:56:24.456Z,6.70
2022-11-23T22:58:51.557Z,6.70
2022-11-23T23:01:23.573Z,6.70
2022-11-23T23:03:55.764Z,6.70
2022-11-23T23:06:28.568Z,6.70
2022-11-23T23:08:57.901Z,6.70
2022-11-23T23:11:26.395Z,6.70
2022-11-23T23:13:54.580Z,6.70
2022-11-23T23:16:21.921Z,6.70
2022-11-23T23:18:49.210Z,6.70
2022-11-23T23:21:18.626Z,6.70
2022-11-23T23:23:48.258Z,6.70
2022-11-23T23:26:17.338Z,6.70
2022-11-23T23:28:44.591Z,6.80
2022-11-23T23:31:14.240Z,6.80
2022-11-23T23:33:41.694Z,6.80
2022-11-23T23:36:11.211Z,6.80
2022-11-23T23:38:38.757Z,6.70
2022-11-23T23:41:06.839Z,6.70
2022-11-23T23:43:34.224Z,6.70
2022-11-23T23:46:03.259Z,6.70
2022-11-23T23:48:36.347Z,6.70
2022-11-23T23:51:11.667Z,6.70
2022-11-23T23:53:39.779Z,6.70
2022-11-23T23:56:12.712Z,6.70
2022-11-23T23:58:39.621Z,6.80
